Portada
METAR-TAF:

METAR-TAF

Aeropuertos :

Aeropuerto de Kangiqsualujjuaq

Kangiqsualujjuaq, Quebec, Canadá

latitud: 58-43N, longitud: 065-59W, altitud: 60 m

Observación

El informe se hizo hace 11 horas y 46 minutos, a las 22:00 UTC
Viento 9 kt del sur con ráfagas de 16 kt
Temperatura -11°C
Humedad 85%
Presión 1002 hPa
Visibilidad: 4.0 km
Escasas nubes a una altura de 1000 ft
Cielo nuboso a una altura de 1400 ft
Cielo cubierto a una altura de 2100 ft
poca nieve, Ventisca alta de nieve

METAR: CYLU 182200Z 19009G16KT 2 1/2SM -SN BLSN FEW010 BKN014 OVC021 M11/M13 A2959 RMK ST1ST6ST1 LAST STFD OBS/NEXT 191300UTC SNW CVR/MUCH LOOSE SLP028

Hora: 04:46 (09:46 UTC)


TAF: falta

Observaciones y pronósticos meteorológicos de más de 4000 aeropuertos (mensajes METAR y TAF).

Los puntos amarillos y rojos representan las estaciones disponibles.

Ponga el ratón en el punto deseado para ver el nombre de la estación.

Haga clic para ver las observaciones y los pronósticos meteorológicos.

Para cambiar el mapa : haga clic en los botones verdes con una cruz de color negro para hacer un zoom, en el botón verde con un guión para alejar o en las flechas verdes para mapas adyacentes.


METAR-TAF: